Time;durP1;ratioP1;P1;durP2;ratioP2;P2;SDS_P1;SDS_P2;PMS_P1;PMS_P2;Temp;Humidity;BMP_temperature;BMP_pressure;BME280_temperature;BME280_humidity;BME280_pressure;Samples;Min_cycle;Max_cycle;Signal;HPM_P1;HPM_P2
2023/09/04 11:57:38;;;;;;;5.18;2.22;;;25.30;50.50;;;;;;20901094;28;20501;-71
2023/09/04 12:07:40;;;;;;;3.53;2.30;;;24.70;51.00;;;;;;20900459;28;20216;-71
2023/09/04 12:17:42;;;;;;;3.38;2.15;;;24.80;51.40;;;;;;20898361;28;20212;-71
2023/09/04 12:27:43;;;;;;;2.88;2.20;;;24.90;51.40;;;;;;20899101;28;20208;-74
2023/09/04 12:37:45;;;;;;;5.97;2.10;;;25.10;50.60;;;;;;20879429;28;20209;-72
2023/09/04 12:47:47;;;;;;;4.20;2.25;;;25.30;50.10;;;;;;20828092;28;20215;-74
2023/09/04 12:57:49;;;;;;;3.88;2.03;;;25.40;50.50;;;;;;20875951;28;20246;-74
2023/09/04 13:07:51;;;;;;;5.13;2.05;;;;;;;;;;20843839;28;20288;-73
2023/09/04 13:17:55;;;;;;;3.05;2.00;;;;;;;;;;20782186;28;20695;-70
2023/09/04 13:27:57;;;;;;;9.40;2.30;;;;;;;;;;20757482;28;20244;-71
2023/09/04 13:38:00;;;;;;;2.28;1.92;;;;;;;;;;20756724;28;20214;-71
2023/09/04 13:48:02;;;;;;;3.83;2.40;;;;;;;;;;20755562;28;20320;-70
2023/09/04 13:58:05;;;;;;;2.03;1.73;;;;;;;;;;20818234;28;20208;-74
2023/09/04 14:08:09;;;;;;;4.30;2.00;;;;;;;;;;20836263;28;20232;-74
2023/09/04 14:18:12;;;;;;;16.35;2.83;;;;;;;;;;20816496;28;20300;-71
2023/09/04 14:28:16;;;;;;;15.77;1.90;;;;;;;;;;20803725;28;20253;-78
2023/09/04 14:38:18;;;;;;;3.47;2.08;;;25.50;51.70;;;;;;20751611;28;20214;-70
2023/09/04 14:48:20;;;;;;;3.38;2.20;;;;;;;;;;20751344;28;20676;-77
2023/09/04 14:58:26;;;;;;;2.40;1.95;;;31.60;39.20;;;;;;20816185;28;20715;-76
2023/09/04 15:08:29;;;;;;;4.63;1.92;;;;;;;;;;20830847;28;20240;-89
2023/09/04 15:18:34;;;;;;;3.90;2.22;;;;;;;;;;20831176;28;20239;-75
2023/09/04 15:28:36;;;;;;;6.32;2.15;;;;;;;;;;20830866;28;20240;-81
2023/09/04 15:38:38;;;;;;;4.10;2.13;;;;;;;;;;20813582;28;20231;-81
2023/09/04 15:48:40;;;;;;;2.60;2.10;;;32.20;38.90;;;;;;20829398;28;20244;-82
2023/09/04 15:58:41;;;;;;;2.58;2.10;;;27.70;42.60;;;;;;20762051;28;20587;-81
2023/09/04 16:08:43;;;;;;;3.05;2.08;;;27.30;43.50;;;;;;20747741;28;20239;-80
2023/09/04 16:18:45;;;;;;;3.08;2.05;;;27.00;43.90;;;;;;20747672;28;20220;-82
2023/09/04 16:28:47;;;;;;;6.45;2.40;;;26.70;44.50;;;;;;20750503;28;20240;-82
2023/09/04 16:38:49;;;;;;;3.17;1.85;;;27.60;44.10;;;;;;20761837;28;20212;-83
2023/09/04 16:48:50;;;;;;;3.05;2.00;;;29.30;42.20;;;;;;20771563;28;20236;-82
2023/09/04 16:58:52;;;;;;;4.55;1.80;;;27.60;43.80;;;;;;20843146;28;20605;-79
2023/09/04 17:08:54;;;;;;;3.55;2.35;;;26.80;44.60;;;;;;20832827;28;20243;-82
2023/09/04 17:18:57;;;;;;;9.45;2.00;;;26.40;45.30;;;;;;20787223;28;20216;-81
2023/09/04 17:28:59;;;;;;;4.15;1.90;;;26.00;45.90;;;;;;20758460;28;20233;-78
2023/09/04 17:39:00;;;;;;;2.63;2.10;;;25.60;46.50;;;;;;20758190;28;20211;-75
2023/09/04 17:49:02;;;;;;;3.77;1.97;;;25.30;47.20;;;;;;20756344;28;20299;-73
2023/09/04 17:59:04;;;;;;;3.10;2.80;;;25.10;48.20;;;;;;20827469;28;20204;-83
2023/09/04 18:09:05;;;;;;;3.90;2.50;;;24.80;49.20;;;;;;20836409;28;20243;-75
2023/09/04 18:19:07;;;;;;;3.80;2.77;;;24.60;50.30;;;;;;20835888;28;20204;-77
2023/09/04 18:29:10;;;;;;;4.50;2.40;;;24.30;51.30;;;;;;20835264;28;20239;-79
2023/09/04 18:39:12;;;;;;;3.70;2.63;;;24.10;52.80;;;;;;20815865;28;20205;-75
2023/09/04 18:49:13;;;;;;;6.50;3.00;;;23.80;54.00;;;;;;20822595;28;20294;-79
2023/09/04 18:59:15;;;;;;;5.87;2.87;;;23.60;54.90;;;;;;20832925;28;20291;-83
2023/09/04 19:09:17;;;;;;;4.10;2.70;;;23.50;55.90;;;;;;20804819;28;20240;-72
2023/09/04 19:19:21;;;;;;;6.60;2.50;;;23.30;56.70;;;;;;20814603;28;20204;-85
2023/09/04 19:29:22;;;;;;;7.07;2.50;;;23.20;57.50;;;;;;20831088;28;20251;-72
2023/09/04 19:39:31;;;;;;;2.87;2.30;;;23.00;58.60;;;;;;20830571;28;20685;-73
2023/09/04 19:49:33;;;;;;;6.57;2.70;;;22.80;59.40;;;;;;20829733;28;20336;-74
2023/09/04 19:59:36;;;;;;;5.20;2.10;;;22.60;60.60;;;;;;20756247;28;20224;-74
2023/09/04 20:09:38;;;;;;;4.17;2.60;;;22.40;61.30;;;;;;20748284;28;20710;-72
2023/09/04 20:19:40;;;;;;;3.57;2.40;;;22.20;62.60;;;;;;20763884;28;20209;-70
2023/09/04 20:29:41;;;;;;;7.20;2.40;;;22.10;63.90;;;;;;20763007;28;20239;-71
2023/09/04 20:39:43;;;;;;;5.20;2.40;;;21.90;65.00;;;;;;20761970;28;20212;-69
2023/09/04 20:49:45;;;;;;;8.37;2.53;;;21.80;65.60;;;;;;20778670;28;20335;-70
2023/09/04 20:59:47;;;;;;;3.97;2.73;;;21.70;66.40;;;;;;20825206;28;20232;-70
2023/09/04 23:23:58;;;;;;;5.27;3.00;;;19.50;83.00;;;;;;20750040;28;20209;-76
2023/09/04 23:33:59;;;;;;;6.47;3.33;;;19.40;84.00;;;;;;20750715;28;20229;-75
2023/09/04 23:54:21;;;;;;;9.57;3.17;;;19.10;86.80;;;;;;20779922;28;20244;-74
